Time;durP1;ratioP1;P1;durP2;ratioP2;P2;SDS_P1;SDS_P2;PMS_P1;PMS_P2;Temp;Humidity;BMP_temperature;BMP_pressure;BME280_temperature;BME280_humidity;BME280_pressure;Samples;Min_cycle;Max_cycle;Signal;HPM_P1;HPM_P2
2021/12/18 00:01:25;;;;;;;0.40;0.10;;;17.60;53.80;;;;;;5128399;28;20043;-62
2021/12/18 00:03:51;;;;;;;0.57;0.20;;;17.60;53.80;;;;;;5129345;28;20047;-62
2021/12/18 00:06:17;;;;;;;0.28;0.10;;;17.60;53.80;;;;;;5128037;28;20478;-63
2021/12/18 00:08:44;;;;;;;0.30;0.10;;;17.60;53.80;;;;;;5128110;28;20041;-63
2021/12/18 00:11:11;;;;;;;1.85;0.30;;;17.50;53.80;;;;;;5127671;28;20139;-63
2021/12/18 00:13:40;;;;;;;0.38;0.10;;;17.60;53.80;;;;;;5127850;28;20115;-62
2021/12/18 00:16:07;;;;;;;0.38;0.20;;;17.50;53.80;;;;;;5128008;28;20046;-63
2021/12/18 00:18:34;;;;;;;0.40;0.10;;;17.50;53.80;;;;;;5128100;28;20433;-63
2021/12/18 00:21:01;;;;;;;0.22;0.10;;;17.50;53.80;;;;;;5127902;27;20039;-63
2021/12/18 00:23:27;;;;;;;0.20;0.10;;;17.50;53.80;;;;;;5113980;28;20075;-62
2021/12/18 00:25:53;;;;;;;0.30;0.10;;;17.50;53.80;;;;;;5113937;28;20074;-63
2021/12/18 00:28:19;;;;;;;0.10;0.10;;;17.50;53.80;;;;;;5114167;28;20391;-63
2021/12/18 00:30:44;;;;;;;0.20;0.10;;;17.50;53.80;;;;;;5115061;28;20051;-62
2021/12/18 00:33:11;;;;;;;0.40;0.10;;;17.50;53.80;;;;;;5115174;28;20036;-63
2021/12/18 00:35:40;;;;;;;0.20;0.10;;;17.50;53.80;;;;;;5113972;28;20042;-62
2021/12/18 00:38:07;;;;;;;0.20;0.10;;;17.40;53.70;;;;;;5113692;28;20039;-63
2021/12/18 00:41:11;;;;;;;0.25;0.08;;;17.40;53.70;;;;;;5114923;28;20047;-63
2021/12/18 00:43:24;;;;;;;0.17;0.10;;;17.40;53.70;;;;;;5114880;28;20080;-62
2021/12/18 00:45:50;;;;;;;0.10;0.00;;;17.40;53.70;;;;;;5115010;28;20043;-63
2021/12/18 00:48:20;;;;;;;0.22;0.10;;;17.40;53.70;;;;;;5114976;28;20039;-63
2021/12/18 00:50:46;;;;;;;0.17;0.00;;;17.40;53.70;;;;;;5113511;28;20036;-63
2021/12/18 00:53:11;;;;;;;0.40;0.10;;;17.40;53.70;;;;;;5114789;28;20031;-63
2021/12/18 00:55:38;;;;;;;0.00;0.00;;;17.40;53.70;;;;;;5113109;28;20039;-63
2021/12/18 00:58:04;;;;;;;0.10;0.10;;;17.40;53.80;;;;;;5113614;28;20043;-63
2021/12/18 01:00:30;;;;;;;0.10;0.03;;;17.40;53.70;;;;;;5114695;28;20043;-63
2021/12/18 01:03:00;;;;;;;0.10;0.10;;;17.40;53.80;;;;;;5114551;28;20036;-63
2021/12/18 01:05:31;;;;;;;0.25;0.10;;;17.40;53.80;;;;;;5113210;28;20118;-63
2021/12/18 01:07:58;;;;;;;0.20;0.10;;;17.40;53.80;;;;;;5114502;28;20040;-62
2021/12/18 01:10:41;;;;;;;0.13;0.10;;;17.40;53.80;;;;;;5112780;28;20051;-63
2021/12/18 01:13:15;;;;;;;0.20;0.10;;;17.40;53.80;;;;;;5114586;28;20032;-62
2021/12/18 01:15:52;;;;;;;0.10;0.00;;;17.40;53.80;;;;;;5113079;28;20071;-62
2021/12/18 01:23:53;;;;;;;0.20;0.10;;;17.30;53.70;;;;;;5112873;28;20051;-63
2021/12/18 01:26:19;;;;;;;0.10;0.00;;;17.30;53.70;;;;;;5114082;28;20391;-63
2021/12/18 01:28:44;;;;;;;0.25;0.10;;;17.30;53.70;;;;;;5113007;28;20040;-62
2021/12/18 01:31:10;;;;;;;0.20;0.10;;;17.30;53.80;;;;;;5113932;28;20130;-63
2021/12/18 01:33:36;;;;;;;0.10;0.00;;;17.30;53.80;;;;;;5112936;28;20394;-63
2021/12/18 01:36:02;;;;;;;0.10;0.00;;;17.30;54.50;;;;;;5114029;28;20079;-63
2021/12/18 01:38:30;;;;;;;0.20;0.00;;;17.30;53.80;;;;;;5112806;28;20048;-63
2021/12/18 01:40:56;;;;;;;0.10;0.00;;;17.30;53.80;;;;;;5113786;28;20036;-63
2021/12/18 01:54:26;;;;;;;0.20;0.00;;;17.20;53.70;;;;;;5130172;27;20354;-61
2021/12/18 01:56:52;;;;;;;0.13;0.00;;;17.20;53.70;;;;;;5129315;28;20043;-63
2021/12/18 01:59:31;;;;;;;0.10;0.00;;;17.20;53.70;;;;;;5128921;28;20401;-62
2021/12/18 02:02:03;;;;;;;0.10;0.00;;;17.20;53.80;;;;;;5129264;28;20051;-62
2021/12/18 02:04:32;;;;;;;0.20;0.00;;;17.20;53.80;;;;;;5129125;28;20043;-62
2021/12/18 02:06:59;;;;;;;0.10;0.00;;;17.20;53.80;;;;;;5128825;28;20047;-62
2021/12/18 02:09:33;;;;;;;0.10;0.00;;;17.20;53.80;;;;;;5128783;28;20075;-63
2021/12/18 02:12:00;;;;;;;0.13;0.00;;;17.20;53.80;;;;;;5128925;28;20042;-63
2021/12/18 02:19:32;;;;;;;0.20;0.10;;;17.20;53.80;;;;;;5129950;27;20044;-62
2021/12/18 02:22:55;;;;;;;0.10;0.00;;;17.20;53.80;;;;;;5130313;27;20350;-63
2021/12/18 02:25:23;;;;;;;0.15;0.05;;;17.10;53.80;;;;;;5128949;28;20514;-63
2021/12/18 02:27:51;;;;;;;0.20;0.00;;;17.10;53.80;;;;;;5129321;28;20482;-62
2021/12/18 02:30:21;;;;;;;0.10;0.00;;;17.10;53.80;;;;;;5128827;27;20053;-62
2021/12/18 02:32:47;;;;;;;0.17;0.00;;;17.10;53.80;;;;;;5128909;28;20050;-62
2021/12/18 02:35:26;;;;;;;0.00;0.00;;;17.10;53.80;;;;;;5130144;27;20106;-62
2021/12/18 02:38:01;;;;;;;0.20;0.00;;;17.10;53.80;;;;;;5129064;28;20035;-63
2021/12/18 02:43:17;;;;;;;0.00;0.00;;;17.10;53.80;;;;;;5128643;28;20479;-63
2021/12/18 02:45:43;;;;;;;0.10;0.00;;;17.00;53.80;;;;;;5130043;28;20034;-62
2021/12/18 02:48:08;;;;;;;0.20;0.00;;;17.00;53.70;;;;;;5128815;28;20524;-63
2021/12/18 02:50:39;;;;;;;0.10;0.00;;;17.00;53.80;;;;;;5128444;28;20122;-63
2021/12/18 02:53:06;;;;;;;0.10;0.10;;;17.00;53.80;;;;;;5128756;28;20164;-63
2021/12/18 02:55:31;;;;;;;0.00;0.00;;;17.00;53.70;;;;;;5129912;27;20039;-63
2021/12/18 02:57:57;;;;;;;0.10;0.00;;;17.00;53.70;;;;;;5129851;28;20042;-63
2021/12/18 03:00:25;;;;;;;0.00;0.00;;;17.00;53.70;;;;;;5128512;28;20127;-63
2021/12/18 03:02:51;;;;;;;0.00;0.00;;;17.00;53.80;;;;;;5128356;28;20144;-62
2021/12/18 03:05:24;;;;;;;0.10;0.00;;;17.00;53.80;;;;;;5129519;27;20027;-63
2021/12/18 03:07:57;;;;;;;0.05;0.00;;;17.00;53.80;;;;;;5129442;27;20422;-62
2021/12/18 03:24:31;;;;;;;0.40;0.00;;;16.90;53.80;;;;;;5127074;28;20047;-63
2021/12/18 03:26:57;;;;;;;0.10;0.08;;;16.90;53.70;;;;;;5127953;28;20517;-62
2021/12/18 03:29:22;;;;;;;0.00;0.00;;;16.90;53.70;;;;;;5127825;28;20050;-63
2021/12/18 03:31:48;;;;;;;0.00;0.00;;;16.90;53.70;;;;;;5127718;28;20043;-62
2021/12/18 03:34:16;;;;;;;0.10;0.00;;;16.90;53.70;;;;;;5114817;28;20036;-62
2021/12/18 03:36:43;;;;;;;0.17;0.00;;;16.90;53.70;;;;;;5115307;28;20570;-63
2021/12/18 03:39:08;;;;;;;0.10;0.00;;;16.90;53.80;;;;;;5115230;28;20036;-62
2021/12/18 03:41:34;;;;;;;0.10;0.00;;;16.90;53.70;;;;;;5113718;28;20058;-62
2021/12/18 03:44:00;;;;;;;0.00;0.00;;;16.90;53.70;;;;;;5115154;28;20039;-62
2021/12/18 03:46:25;;;;;;;0.22;0.00;;;16.90;53.70;;;;;;5115200;28;20552;-63
2021/12/18 03:48:51;;;;;;;0.10;0.00;;;16.90;53.70;;;;;;5115082;28;20118;-63
2021/12/18 03:51:17;;;;;;;0.10;0.00;;;16.80;53.70;;;;;;5113615;28;20043;-62
2021/12/18 03:53:42;;;;;;;0.00;0.00;;;16.80;53.70;;;;;;5113948;28;20039;-62
2021/12/18 03:56:08;;;;;;;0.10;0.00;;;16.80;53.70;;;;;;5113705;28;20519;-62
2021/12/18 03:58:34;;;;;;;0.10;0.00;;;16.80;53.70;;;;;;5113937;28;20074;-63
2021/12/18 04:01:00;;;;;;;0.00;0.00;;;16.80;53.70;;;;;;5114780;28;20489;-62
2021/12/18 04:03:26;;;;;;;0.10;0.00;;;16.80;53.70;;;;;;5114783;28;20032;-63
2021/12/18 04:05:51;;;;;;;0.00;0.00;;;16.80;53.70;;;;;;5113464;28;20046;-63
2021/12/18 04:08:17;;;;;;;0.00;0.00;;;16.80;53.70;;;;;;5114713;28;20028;-62
2021/12/18 04:10:46;;;;;;;0.00;0.00;;;16.80;53.70;;;;;;5113342;28;20111;-63
2021/12/18 04:13:12;;;;;;;0.10;0.00;;;16.90;53.80;;;;;;5113797;28;20391;-63
2021/12/18 04:15:40;;;;;;;0.00;0.00;;;16.80;53.70;;;;;;5114678;28;20040;-62
2021/12/18 04:18:06;;;;;;;0.03;0.00;;;16.70;54.40;;;;;;5112692;28;20062;-62
2021/12/18 04:20:32;;;;;;;0.30;0.05;;;16.70;53.70;;;;;;5112810;28;20609;-63
2021/12/18 04:22:58;;;;;;;0.00;0.00;;;16.70;53.70;;;;;;5114273;28;20432;-62
2021/12/18 04:25:23;;;;;;;0.00;0.00;;;16.70;53.70;;;;;;5113315;28;20036;-62
2021/12/18 04:27:49;;;;;;;0.05;0.00;;;16.70;53.70;;;;;;5113144;28;20040;-63
2021/12/18 04:30:15;;;;;;;0.55;0.00;;;16.70;53.70;;;;;;5114454;28;20043;-63
2021/12/18 04:32:42;;;;;;;0.08;0.00;;;16.70;53.80;;;;;;5112888;28;20615;-63
2021/12/18 04:35:08;;;;;;;0.00;0.00;;;16.70;53.80;;;;;;5112852;28;20134;-62
2021/12/18 04:37:33;;;;;;;0.10;0.00;;;16.70;53.70;;;;;;5114106;28;20042;-62
2021/12/18 04:39:59;;;;;;;0.00;0.00;;;16.70;53.70;;;;;;5114125;28;20031;-63
2021/12/18 04:42:24;;;;;;;0.10;0.00;;;16.70;53.70;;;;;;5113869;28;20027;-62
2021/12/18 04:44:50;;;;;;;0.00;0.00;;;16.70;53.70;;;;;;5112954;28;20425;-62
2021/12/18 04:47:16;;;;;;;0.10;0.00;;;16.70;53.70;;;;;;5112649;28;20432;-62
2021/12/18 04:49:42;;;;;;;0.00;0.00;;;16.70;53.70;;;;;;5113785;28;20034;-62
2021/12/18 04:52:07;;;;;;;0.00;0.00;;;16.60;53.60;;;;;;5112829;28;20074;-62
2021/12/18 04:54:36;;;;;;;0.10;0.00;;;16.60;53.60;;;;;;5113739;28;20392;-62
2021/12/18 04:57:02;;;;;;;0.00;0.00;;;16.60;53.70;;;;;;5113654;28;20498;-62
2021/12/18 04:59:28;;;;;;;0.00;0.00;;;16.60;53.70;;;;;;5112308;28;20040;-62
2021/12/18 05:01:54;;;;;;;0.17;0.00;;;16.60;53.60;;;;;;5112321;28;20054;-63
2021/12/18 05:04:20;;;;;;;0.00;0.00;;;16.60;53.60;;;;;;5113504;28;20081;-62
2021/12/18 05:06:48;;;;;;;0.00;0.00;;;16.60;53.60;;;;;;5112259;28;20122;-62
2021/12/18 05:09:15;;;;;;;0.93;0.00;;;16.60;53.60;;;;;;5113446;28;20427;-62
2021/12/18 05:11:43;;;;;;;0.00;0.00;;;16.60;53.60;;;;;;5113339;28;20039;-63
2021/12/18 05:14:09;;;;;;;0.90;0.00;;;16.60;53.60;;;;;;5113549;28;20044;-62
2021/12/18 05:16:36;;;;;;;0.00;0.00;;;16.60;53.60;;;;;;5113348;28;20039;-62
2021/12/18 05:19:02;;;;;;;0.00;0.00;;;16.60;53.60;;;;;;5113205;28;20040;-62
2021/12/18 05:21:28;;;;;;;0.00;0.00;;;16.60;53.60;;;;;;5111671;28;20051;-62
2021/12/18 05:23:54;;;;;;;0.00;0.00;;;16.60;53.60;;;;;;5111991;28;20089;-62
2021/12/18 05:26:20;;;;;;;0.10;0.00;;;16.50;53.50;;;;;;5113132;28;20440;-62
2021/12/18 05:28:46;;;;;;;0.00;0.00;;;16.50;53.50;;;;;;5113003;28;20024;-62
2021/12/18 05:31:16;;;;;;;0.00;0.00;;;16.50;53.50;;;;;;5113228;28;20413;-63
2021/12/18 05:33:45;;;;;;;0.00;0.00;;;16.50;53.50;;;;;;5113208;28;20044;-63
2021/12/18 05:36:30;;;;;;;0.00;0.00;;;16.60;53.60;;;;;;5111715;28;20043;-63
2021/12/18 05:39:00;;;;;;;0.20;0.00;;;16.50;53.50;;;;;;5113011;28;20043;-63
2021/12/18 05:41:26;;;;;;;0.15;0.00;;;16.50;53.50;;;;;;5112684;28;20042;-62
2021/12/18 05:43:52;;;;;;;0.00;0.00;;;16.50;53.50;;;;;;5111898;28;20119;-62
2021/12/18 05:46:17;;;;;;;0.00;0.00;;;16.50;53.50;;;;;;5112739;28;20479;-62
2021/12/18 05:48:43;;;;;;;1.38;0.00;;;16.50;53.50;;;;;;5112746;28;20046;-62
2021/12/18 05:51:08;;;;;;;0.00;0.00;;;16.50;53.50;;;;;;5112697;28;20043;-62
2021/12/18 05:53:34;;;;;;;0.00;0.00;;;16.50;53.50;;;;;;5112716;28;20039;-62
2021/12/18 05:56:00;;;;;;;0.08;0.00;;;16.50;53.50;;;;;;5110992;28;20039;-62
2021/12/18 05:58:25;;;;;;;0.08;0.00;;;16.50;54.30;;;;;;5111338;28;20036;-62
2021/12/18 06:00:54;;;;;;;0.10;0.00;;;16.50;53.50;;;;;;5111183;28;20050;-62
2021/12/18 06:03:19;;;;;;;0.00;0.00;;;16.50;53.60;;;;;;5112700;28;20093;-63
2021/12/18 06:05:45;;;;;;;0.10;0.00;;;16.50;53.50;;;;;;5112545;28;20032;-62
2021/12/18 06:08:12;;;;;;;0.00;0.00;;;16.50;53.50;;;;;;5111261;28;20035;-62
2021/12/18 06:10:38;;;;;;;0.00;0.00;;;16.50;53.50;;;;;;5111029;28;20052;-62
2021/12/18 06:13:07;;;;;;;0.00;0.00;;;16.40;53.50;;;;;;5112433;28;20036;-62
2021/12/18 06:15:33;;;;;;;0.10;0.00;;;16.50;53.50;;;;;;5111370;28;20368;-63
2021/12/18 06:17:59;;;;;;;0.00;0.00;;;16.50;53.50;;;;;;5111913;28;20036;-62
2021/12/18 06:20:27;;;;;;;0.00;0.00;;;16.40;53.50;;;;;;5112180;28;20047;-62
2021/12/18 06:22:54;;;;;;;0.40;0.00;;;16.40;53.50;;;;;;5111793;28;20040;-63
2021/12/18 06:25:19;;;;;;;0.30;0.00;;;16.40;53.50;;;;;;5112267;28;20046;-61
2021/12/18 06:27:45;;;;;;;0.05;0.00;;;16.40;53.50;;;;;;5112203;28;20036;-62
2021/12/18 06:30:12;;;;;;;0.05;0.00;;;16.40;53.50;;;;;;5112123;28;20039;-62
2021/12/18 06:32:39;;;;;;;0.03;0.00;;;16.40;53.50;;;;;;5110657;28;20047;-62
2021/12/18 06:35:07;;;;;;;0.05;0.00;;;16.40;53.50;;;;;;5112314;28;20039;-62
2021/12/18 06:37:33;;;;;;;0.03;0.00;;;16.40;53.50;;;;;;5112148;28;20051;-62
2021/12/18 06:39:59;;;;;;;0.10;0.00;;;16.40;53.50;;;;;;5111117;28;20044;-62
2021/12/18 06:42:24;;;;;;;0.08;0.00;;;16.40;53.50;;;;;;5112220;28;20039;-63
2021/12/18 06:44:50;;;;;;;0.10;0.00;;;16.40;53.50;;;;;;5110857;28;20040;-62
2021/12/18 06:47:15;;;;;;;0.20;0.00;;;16.30;53.50;;;;;;5112037;28;20061;-63
2021/12/18 06:49:41;;;;;;;0.10;0.00;;;16.40;53.50;;;;;;5112182;28;20516;-63
2021/12/18 06:52:10;;;;;;;0.55;0.35;;;16.30;53.40;;;;;;5112036;28;20035;-63
2021/12/18 06:54:36;;;;;;;0.05;0.00;;;16.30;53.50;;;;;;5111004;28;20093;-62
2021/12/18 06:57:02;;;;;;;0.30;0.00;;;16.30;53.50;;;;;;5110886;28;20043;-62
2021/12/18 06:59:28;;;;;;;0.00;0.00;;;16.30;53.50;;;;;;5112018;28;20515;-62
2021/12/18 07:01:54;;;;;;;0.50;0.00;;;16.30;53.50;;;;;;5111926;28;20119;-62
2021/12/18 07:04:24;;;;;;;0.10;0.00;;;16.30;53.50;;;;;;5112017;28;20034;-62
2021/12/18 07:06:51;;;;;;;0.00;0.00;;;16.30;53.50;;;;;;5112040;28;20398;-62
2021/12/18 07:09:17;;;;;;;0.10;0.00;;;16.30;53.50;;;;;;5113785;28;20527;-62
2021/12/18 07:11:44;;;;;;;0.28;0.00;;;16.20;53.50;;;;;;5115741;28;20039;-62
2021/12/18 07:14:10;;;;;;;0.00;0.00;;;16.30;53.50;;;;;;5114381;28;20119;-62
2021/12/18 07:16:35;;;;;;;0.00;0.00;;;16.30;53.60;;;;;;5114404;28;20130;-62
2021/12/18 07:19:01;;;;;;;0.00;0.00;;;16.20;53.50;;;;;;5114411;28;20069;-62
2021/12/18 07:21:26;;;;;;;0.13;0.00;;;16.30;53.60;;;;;;5115356;28;20083;-62
2021/12/18 07:23:52;;;;;;;0.00;0.00;;;16.30;53.60;;;;;;5114215;28;20055;-62
2021/12/18 07:26:18;;;;;;;0.25;0.10;;;16.20;53.50;;;;;;5115363;28;20124;-61
2021/12/18 07:28:43;;;;;;;0.03;0.00;;;16.30;53.60;;;;;;5115633;28;20043;-62
2021/12/18 07:31:10;;;;;;;0.00;0.00;;;16.20;53.50;;;;;;5115475;28;20040;-62
2021/12/18 07:33:37;;;;;;;0.00;0.00;;;16.20;53.60;;;;;;5115470;28;20558;-63
2021/12/18 07:36:06;;;;;;;0.00;0.00;;;16.20;53.60;;;;;;5114050;28;20054;-62
2021/12/18 07:38:31;;;;;;;0.03;0.00;;;16.20;53.60;;;;;;5113979;28;20591;-62
2021/12/18 07:40:57;;;;;;;0.10;0.00;;;16.20;53.60;;;;;;5115129;28;20040;-62
2021/12/18 07:43:23;;;;;;;0.00;0.00;;;16.20;53.60;;;;;;5114125;28;20390;-62
2021/12/18 07:45:48;;;;;;;0.20;0.00;;;16.20;53.60;;;;;;5115313;28;20092;-63
2021/12/18 07:48:17;;;;;;;0.10;0.00;;;16.20;53.60;;;;;;5115071;28;20044;-62
2021/12/18 07:50:46;;;;;;;0.10;0.00;;;16.20;53.60;;;;;;5115022;28;20495;-62
2021/12/18 07:53:12;;;;;;;0.15;0.00;;;16.20;53.60;;;;;;5115070;28;20394;-62
2021/12/18 07:55:38;;;;;;;0.00;0.00;;;16.20;53.60;;;;;;5114773;28;20043;-62
2021/12/18 07:58:05;;;;;;;0.10;0.00;;;16.20;53.60;;;;;;5113646;28;20036;-62
2021/12/18 08:00:33;;;;;;;0.10;0.00;;;16.20;53.60;;;;;;5113536;28;20039;-62
2021/12/18 08:02:59;;;;;;;0.20;0.00;;;16.20;53.60;;;;;;5114827;28;20032;-62
2021/12/18 08:05:25;;;;;;;0.10;0.00;;;16.10;53.60;;;;;;5113710;28;20504;-62
2021/12/18 08:07:50;;;;;;;0.10;0.00;;;16.20;53.70;;;;;;5113437;28;20471;-62
2021/12/18 08:10:16;;;;;;;0.13;0.00;;;16.10;53.60;;;;;;5113308;28;20078;-63
2021/12/18 08:12:42;;;;;;;0.00;0.00;;;16.10;53.60;;;;;;5113345;28;20047;-62
2021/12/18 08:15:09;;;;;;;0.20;0.00;;;16.10;53.60;;;;;;5113241;28;20092;-62
2021/12/18 08:17:36;;;;;;;0.20;0.00;;;16.10;53.60;;;;;;5112888;28;20149;-62
2021/12/18 08:20:03;;;;;;;0.10;0.00;;;16.10;53.60;;;;;;5114356;28;20036;-63
2021/12/18 08:22:29;;;;;;;0.22;0.00;;;16.10;53.60;;;;;;5113522;28;20081;-63
2021/12/18 08:24:55;;;;;;;0.73;0.03;;;16.10;53.60;;;;;;5113105;28;20067;-62
2021/12/18 08:27:23;;;;;;;0.20;0.00;;;16.10;54.40;;;;;;5114333;28;20487;-62
2021/12/18 08:29:52;;;;;;;0.22;0.00;;;16.10;53.60;;;;;;5113332;28;20094;-62
2021/12/18 08:32:18;;;;;;;0.10;0.00;;;16.20;53.70;;;;;;5113251;28;20057;-62
2021/12/18 08:34:44;;;;;;;0.10;0.00;;;16.10;53.70;;;;;;5113159;28;20058;-63
2021/12/18 08:37:09;;;;;;;0.13;0.10;;;16.10;53.60;;;;;;5114097;28;20131;-63
2021/12/18 08:39:35;;;;;;;0.30;0.05;;;16.10;53.60;;;;;;5112856;28;20039;-62
2021/12/18 08:42:04;;;;;;;0.10;0.00;;;16.10;53.60;;;;;;5112565;28;20047;-62
2021/12/18 08:44:30;;;;;;;0.20;0.00;;;16.00;53.60;;;;;;5113026;28;20062;-62
2021/12/18 08:46:59;;;;;;;1.50;0.43;;;16.00;53.60;;;;;;5112544;28;20048;-62
2021/12/18 08:49:25;;;;;;;0.40;0.10;;;16.10;53.60;;;;;;5114009;28;20080;-62
2021/12/18 08:51:52;;;;;;;0.10;0.00;;;16.10;53.60;;;;;;5113812;28;20483;-62
2021/12/18 08:54:18;;;;;;;0.32;0.03;;;16.00;53.60;;;;;;5112442;28;20047;-62
2021/12/18 08:56:43;;;;;;;0.95;0.10;;;16.10;53.70;;;;;;5113930;28;20043;-62
2021/12/18 08:59:09;;;;;;;0.03;0.00;;;16.00;53.60;;;;;;5113845;28;20395;-62
2021/12/18 09:01:34;;;;;;;0.47;0.00;;;16.10;53.70;;;;;;5112485;28;20042;-62
2021/12/18 09:04:00;;;;;;;0.35;0.10;;;16.10;53.60;;;;;;5112585;28;20425;-62
2021/12/18 09:06:26;;;;;;;0.10;0.00;;;16.00;53.60;;;;;;5113509;28;20476;-62
2021/12/18 09:08:53;;;;;;;0.20;0.00;;;16.10;53.70;;;;;;5113547;28;20071;-62
2021/12/18 09:11:19;;;;;;;0.30;0.10;;;16.00;53.60;;;;;;5113346;28;20095;-62
2021/12/18 09:13:45;;;;;;;0.43;0.00;;;16.10;53.70;;;;;;5113516;28;20084;-62
2021/12/18 09:16:10;;;;;;;0.10;0.00;;;16.00;53.60;;;;;;5113542;28;20119;-61
2021/12/18 09:18:36;;;;;;;0.25;0.10;;;16.00;53.60;;;;;;5112664;28;20031;-63
2021/12/18 09:21:02;;;;;;;0.10;0.00;;;16.00;53.70;;;;;;5113016;28;20082;-62
2021/12/18 09:23:28;;;;;;;0.22;0.00;;;16.00;54.00;;;;;;5111903;28;20047;-62
2021/12/18 09:25:53;;;;;;;0.10;0.00;;;16.00;53.70;;;;;;5111811;28;20107;-63
2021/12/18 09:28:19;;;;;;;0.50;0.10;;;16.00;53.70;;;;;;5113311;28;20031;-62
2021/12/18 09:30:45;;;;;;;0.30;0.10;;;16.00;53.70;;;;;;5111311;28;20035;-62
2021/12/18 09:33:13;;;;;;;0.73;0.10;;;16.00;53.70;;;;;;5111768;28;20035;-62
2021/12/18 09:35:39;;;;;;;0.52;0.10;;;16.00;53.70;;;;;;5111770;28;20101;-63
2021/12/18 09:38:06;;;;;;;0.13;0.00;;;16.00;53.80;;;;;;5111692;28;20032;-62
2021/12/18 09:40:38;;;;;;;0.35;0.20;;;16.00;53.70;;;;;;5111878;28;20405;-61
2021/12/18 09:43:04;;;;;;;0.20;0.03;;;16.00;53.70;;;;;;5111527;28;20585;-63
2021/12/18 09:45:33;;;;;;;0.20;0.10;;;16.00;53.70;;;;;;5111844;28;20036;-62
2021/12/18 09:48:00;;;;;;;0.55;0.17;;;16.00;53.70;;;;;;5111777;28;20040;-62
2021/12/18 09:50:27;;;;;;;0.63;0.10;;;16.00;53.70;;;;;;5111580;28;20065;-62
2021/12/18 09:52:53;;;;;;;0.30;0.10;;;16.00;53.80;;;;;;5111391;28;20051;-62
2021/12/18 09:55:20;;;;;;;0.25;0.10;;;16.00;53.70;;;;;;5112686;28;20039;-62
2021/12/18 09:57:49;;;;;;;0.57;0.47;;;16.00;53.70;;;;;;5112574;28;20036;-62
2021/12/18 10:00:19;;;;;;;0.82;0.10;;;16.00;53.80;;;;;;5112799;28;20078;-64
2021/12/18 10:02:45;;;;;;;0.53;0.10;;;16.00;53.80;;;;;;5111222;28;20066;-62
2021/12/18 10:05:24;;;;;;;0.40;0.10;;;16.00;53.80;;;;;;5112532;28;20071;-62
2021/12/18 10:11:06;;;;;;;0.38;0.10;;;16.00;53.80;;;;;;5130274;27;20139;-62
2021/12/18 10:16:42;;;;;;;0.17;0.10;;;16.00;53.80;;;;;;5110063;27;20866;-62
2021/12/18 10:22:07;;;;;;;1.17;0.35;;;16.00;53.80;;;;;;5130327;27;20131;-62
2021/12/18 10:24:36;;;;;;;0.50;0.10;;;16.00;53.80;;;;;;5128900;28;20039;-63
2021/12/18 10:27:23;;;;;;;0.60;0.20;;;16.00;53.80;;;;;;5128954;28;20055;-63
2021/12/18 10:29:51;;;;;;;0.38;0.20;;;16.00;53.90;;;;;;5130302;27;20046;-62
2021/12/18 10:32:19;;;;;;;0.30;0.10;;;16.00;53.80;;;;;;5128956;28;20089;-62
2021/12/18 10:35:00;;;;;;;0.30;0.10;;;16.00;53.80;;;;;;5130054;27;20043;-62
2021/12/18 10:42:46;;;;;;;0.40;0.15;;;16.00;54.60;;;;;;5130330;27;20357;-63
2021/12/18 10:53:29;;;;;;;0.30;0.10;;;16.00;53.90;;;;;;5089461;27;20730;-62
2021/12/18 10:55:58;;;;;;;0.77;0.20;;;16.00;54.00;;;;;;5088101;28;20040;-62
2021/12/18 11:03:50;;;;;;;0.38;0.10;;;16.00;54.00;;;;;;5130460;27;20379;-62
2021/12/18 11:06:32;;;;;;;0.43;0.10;;;16.00;53.90;;;;;;5128994;28;20043;-63
2021/12/18 11:09:06;;;;;;;1.00;0.10;;;16.00;54.00;;;;;;5129241;28;20066;-63
2021/12/18 11:14:22;;;;;;;0.43;0.10;;;16.00;54.00;;;;;;5130365;27;20349;-62
2021/12/18 11:16:53;;;;;;;0.85;0.20;;;16.00;54.10;;;;;;5129211;28;20464;-62
2021/12/18 11:19:22;;;;;;;0.50;0.10;;;15.90;54.00;;;;;;5129197;27;20057;-62
2021/12/18 11:21:51;;;;;;;0.22;0.10;;;15.90;54.10;;;;;;5130246;27;20028;-62
2021/12/18 11:24:21;;;;;;;0.50;0.10;;;16.00;54.10;;;;;;5128913;28;20039;-62
2021/12/18 11:32:31;;;;;;;0.40;0.10;;;15.90;54.10;;;;;;5153200;27;1155694;-62
2021/12/18 11:35:03;;;;;;;0.40;0.32;;;16.00;54.10;;;;;;5171565;27;20381;-62
2021/12/18 11:37:38;;;;;;;0.30;0.10;;;16.00;54.10;;;;;;5171143;27;20026;-63
2021/12/18 11:40:09;;;;;;;0.65;0.20;;;16.00;54.20;;;;;;5153378;27;20045;-63
2021/12/18 11:42:35;;;;;;;1.50;0.15;;;16.00;54.20;;;;;;5153154;27;20047;-62
2021/12/18 11:45:05;;;;;;;0.55;0.10;;;16.00;54.20;;;;;;5152988;27;20042;-61
2021/12/18 11:50:31;;;;;;;1.85;0.10;;;16.00;54.20;;;;;;5046139;27;4090226;-62
2021/12/18 11:56:00;;;;;;;0.65;0.10;;;16.00;54.20;;;;;;5130399;27;20375;-63
2021/12/18 11:58:33;;;;;;;0.60;0.10;;;16.00;54.10;;;;;;5128934;28;20071;-62
2021/12/18 12:06:35;;;;;;;1.35;0.20;;;16.00;54.20;;;;;;5151017;27;20111;-63
2021/12/18 12:12:08;;;;;;;0.60;0.10;;;16.00;54.10;;;;;;5130215;27;20406;-62
2021/12/18 12:14:39;;;;;;;1.98;0.10;;;16.00;54.10;;;;;;5129023;28;20093;-63
2021/12/18 12:19:49;;;;;;;0.40;0.10;;;16.00;54.10;;;;;;5089811;27;20418;-62
2021/12/18 12:25:30;;;;;;;2.05;0.20;;;16.00;54.20;;;;;;5130402;27;20394;-63
2021/12/18 12:28:02;;;;;;;0.52;0.10;;;15.90;54.20;;;;;;5129290;28;20096;-62
2021/12/18 12:30:38;;;;;;;1.77;0.10;;;16.00;54.30;;;;;;5129155;28;20471;-62
2021/12/18 12:33:06;;;;;;;0.60;0.10;;;15.90;54.30;;;;;;5129120;27;20707;-62
2021/12/18 12:38:41;;;;;;;2.03;0.15;;;15.90;54.20;;;;;;5129940;27;20413;-62
2021/12/18 12:47:28;;;;;;;1.20;0.10;;;15.90;54.30;;;;;;5089383;27;20356;-62
2021/12/18 12:50:15;;;;;;;0.35;0.10;;;15.90;54.30;;;;;;5088401;28;20040;-62
2021/12/18 12:53:01;;;;;;;0.40;0.10;;;15.90;54.30;;;;;;5088010;28;20476;-62
2021/12/18 12:55:30;;;;;;;0.30;0.10;;;15.90;54.30;;;;;;5088339;28;20047;-62
2021/12/18 13:00:36;;;;;;;0.30;0.10;;;15.90;54.40;;;;;;5152390;27;1157309;-62
2021/12/18 13:03:13;;;;;;;0.28;0.10;;;15.90;54.40;;;;;;5152553;27;20050;-62
2021/12/18 13:05:48;;;;;;;0.80;0.10;;;15.90;54.40;;;;;;5153332;27;20038;-63
2021/12/18 13:08:14;;;;;;;0.55;0.10;;;15.90;54.40;;;;;;5152249;27;20046;-64
2021/12/18 13:10:42;;;;;;;0.52;0.15;;;15.90;54.40;;;;;;5152738;27;20042;-62
2021/12/18 13:13:11;;;;;;;0.90;0.10;;;15.90;54.40;;;;;;5152934;27;20054;-62
2021/12/18 13:16:00;;;;;;;0.40;0.10;;;15.90;54.40;;;;;;5171533;27;20046;-63
2021/12/18 13:18:30;;;;;;;0.20;0.10;;;15.90;54.40;;;;;;5152240;27;20477;-63
2021/12/18 13:21:00;;;;;;;1.38;0.10;;;15.90;54.40;;;;;;5153044;27;20042;-62
2021/12/18 13:31:58;;;;;;;0.32;0.10;;;15.90;54.40;;;;;;5130242;27;20706;-62
2021/12/18 13:34:28;;;;;;;0.52;0.10;;;15.90;54.60;;;;;;5129499;28;20096;-62
2021/12/18 13:39:43;;;;;;;0.65;0.10;;;15.90;55.30;;;;;;5130449;27;20406;-62
2021/12/18 13:42:13;;;;;;;0.60;0.10;;;15.80;54.50;;;;;;5129184;28;20101;-62
2021/12/18 13:47:40;;;;;;;0.15;0.10;;;15.90;54.60;;;;;;5088597;28;20385;-63
2021/12/18 13:50:23;;;;;;;0.10;0.03;;;15.90;54.60;;;;;;5088248;28;20127;-63
2021/12/18 13:55:47;;;;;;;0.57;0.10;;;15.90;54.60;;;;;;5089447;28;20758;-63
2021/12/18 13:58:24;;;;;;;0.30;0.10;;;15.90;54.60;;;;;;5089382;28;20488;-62
2021/12/18 14:01:12;;;;;;;0.55;0.10;;;15.80;54.60;;;;;;5087978;28;20040;-63
2021/12/18 14:11:50;;;;;;;0.10;0.10;;;15.80;54.60;;;;;;5130184;27;20358;-62
2021/12/18 14:14:16;;;;;;;0.40;0.10;;;15.80;54.60;;;;;;5128999;28;20043;-62
2021/12/18 14:16:53;;;;;;;1.52;0.10;;;15.80;54.60;;;;;;5128198;27;20075;-62
2021/12/18 14:19:29;;;;;;;0.68;0.10;;;15.80;54.60;;;;;;5129177;28;20039;-62
2021/12/18 14:21:55;;;;;;;0.73;0.30;;;15.80;54.60;;;;;;5128942;28;20035;-63
2021/12/18 14:24:21;;;;;;;0.40;0.10;;;15.80;54.60;;;;;;5129991;28;20046;-62
2021/12/18 14:29:37;;;;;;;0.35;0.10;;;15.80;54.60;;;;;;5130347;27;20353;-62
2021/12/18 14:32:06;;;;;;;0.30;0.10;;;15.80;54.60;;;;;;5130201;27;20047;-61
2021/12/18 14:39:57;;;;;;;0.80;0.10;;;15.80;54.60;;;;;;5151050;27;20293;-63
2021/12/18 14:42:34;;;;;;;0.75;0.10;;;15.80;54.70;;;;;;5129019;28;20100;-62
2021/12/18 14:45:07;;;;;;;0.50;0.10;;;15.80;54.70;;;;;;5128969;28;20073;-62
2021/12/18 14:47:53;;;;;;;1.10;0.13;;;15.80;54.70;;;;;;5128893;28;20047;-62
2021/12/18 14:55:55;;;;;;;0.40;0.10;;;15.80;54.80;;;;;;5130420;27;20349;-62
2021/12/18 15:03:52;;;;;;;0.82;0.15;;;15.80;54.80;;;;;;5130741;27;20410;-62
2021/12/18 15:11:48;;;;;;;0.85;0.10;;;15.70;54.80;;;;;;5130556;27;20354;-62
2021/12/18 15:14:23;;;;;;;0.70;0.10;;;15.70;54.80;;;;;;5129216;28;20395;-62
2021/12/18 15:19:39;;;;;;;0.57;0.10;;;15.70;54.80;;;;;;5151195;27;20099;-62
2021/12/18 15:22:08;;;;;;;0.85;0.20;;;15.70;54.80;;;;;;5128998;28;20072;-63
2021/12/18 15:24:37;;;;;;;0.77;0.10;;;15.70;54.80;;;;;;5129212;28;20054;-63
2021/12/18 15:27:06;;;;;;;0.85;0.10;;;15.70;54.80;;;;;;5128874;28;20399;-62
2021/12/18 15:29:36;;;;;;;0.73;0.20;;;15.70;54.80;;;;;;5129025;28;20040;-62
2021/12/18 15:32:04;;;;;;;1.25;0.10;;;15.70;54.80;;;;;;5129138;28;20359;-63